createdAt,value
2023-01-18T00:01:04.757Z,2.95
2023-01-18T00:03:33.653Z,3.35
2023-01-18T00:06:08.430Z,3.25
2023-01-18T00:08:37.298Z,3.97
2023-01-18T00:11:05.656Z,3.40
2023-01-18T00:13:33.205Z,3.30
2023-01-18T00:16:15.520Z,3.35
2023-01-18T00:18:43.616Z,2.70
2023-01-18T00:21:12.862Z,2.78
2023-01-18T00:23:40.007Z,2.72
2023-01-18T00:26:11.904Z,3.30
2023-01-18T00:28:40.294Z,3.10
2023-01-18T00:31:19.178Z,2.78
2023-01-18T00:33:48.067Z,3.42
2023-01-18T00:36:16.422Z,3.10
2023-01-18T00:38:43.914Z,2.78
2023-01-18T00:41:10.935Z,2.78
2023-01-18T00:43:40.861Z,2.58
2023-01-18T00:46:20.566Z,2.63
2023-01-18T00:48:48.601Z,2.78
2023-01-18T00:51:21.337Z,2.78
2023-01-18T00:53:48.458Z,2.42
2023-01-18T00:56:19.358Z,2.60
2023-01-18T00:58:46.627Z,2.67
2023-01-18T01:01:14.718Z,2.55
2023-01-18T01:04:00.645Z,2.50
2023-01-18T01:06:45.796Z,2.50
2023-01-18T01:09:15.342Z,2.70
2023-01-18T01:12:02.431Z,2.47
2023-01-18T01:14:48.189Z,3.05
2023-01-18T01:17:33.938Z,2.50
2023-01-18T01:20:19.660Z,2.35
2023-01-18T01:23:05.086Z,2.20
2023-01-18T01:25:50.840Z,2.00
2023-01-18T01:28:17.996Z,2.72
2023-01-18T01:30:45.587Z,1.92
2023-01-18T01:33:12.786Z,1.95
2023-01-18T01:35:40.160Z,2.40
2023-01-18T01:38:07.210Z,1.67
2023-01-18T01:40:34.252Z,2.03
2023-01-18T01:43:01.410Z,1.92
2023-01-18T01:45:31.663Z,2.85
2023-01-18T01:47:59.771Z,2.90
2023-01-18T01:50:29.167Z,2.70
2023-01-18T01:52:58.975Z,2.58
2023-01-18T01:55:31.998Z,3.10
2023-01-18T01:58:01.864Z,3.80
2023-01-18T02:00:29.573Z,2.90
2023-01-18T02:03:12.935Z,3.30
2023-01-18T02:05:45.772Z,3.30
2023-01-18T02:08:14.227Z,3.40
2023-01-18T02:10:41.277Z,2.75
2023-01-18T02:13:10.468Z,3.33
2023-01-18T02:15:50.648Z,2.67
2023-01-18T02:18:46.758Z,3.17
2023-01-18T02:21:59.231Z,3.38
2023-01-18T02:25:01.122Z,3.20
2023-01-18T02:27:51.383Z,3.20
2023-01-18T02:30:30.675Z,3.40
2023-01-18T02:33:03.874Z,3.30
2023-01-18T02:35:50.630Z,3.08
2023-01-18T02:38:27.276Z,3.20
2023-01-18T02:41:05.180Z,3.13
2023-01-18T02:43:53.714Z,3.20
2023-01-18T02:46:34.007Z,2.70
2023-01-18T02:49:09.682Z,3.13
2023-01-18T02:51:37.697Z,3.05
2023-01-18T02:54:10.518Z,3.10
2023-01-18T02:56:46.559Z,2.92
2023-01-18T02:59:27.500Z,2.75
2023-01-18T03:02:02.693Z,2.92
2023-01-18T03:04:54.468Z,2.88
2023-01-18T03:07:36.380Z,2.90
2023-01-18T03:10:07.786Z,2.90
2023-01-18T03:13:00.689Z,3.45
2023-01-18T03:15:56.132Z,2.55
2023-01-18T03:19:13.956Z,2.90
2023-01-18T03:21:48.834Z,3.25
2023-01-18T03:24:18.617Z,2.80
2023-01-18T03:26:49.392Z,3.30
2023-01-18T03:29:37.895Z,3.10
2023-01-18T03:32:36.089Z,2.60
2023-01-18T03:35:19.395Z,2.97
2023-01-18T03:37:48.910Z,2.90
2023-01-18T03:40:20.519Z,3.45
2023-01-18T03:42:53.226Z,3.20
2023-01-18T03:45:49.805Z,3.20
2023-01-18T03:48:17.350Z,3.60
2023-01-18T03:51:09.416Z,3.60
2023-01-18T03:53:58.208Z,3.38
2023-01-18T03:56:35.301Z,3.60
2023-01-18T03:59:04.707Z,3.30
2023-01-18T04:01:32.324Z,3.47
2023-01-18T04:03:59.534Z,3.50
2023-01-18T04:06:27.311Z,3.95
2023-01-18T04:08:54.424Z,4.30
2023-01-18T04:11:21.472Z,4.22
2023-01-18T04:13:48.523Z,3.97
2023-01-18T04:16:16.347Z,3.78
2023-01-18T04:18:43.435Z,3.55
2023-01-18T04:21:10.666Z,4.93
2023-01-18T04:23:37.746Z,4.40
2023-01-18T04:26:05.003Z,4.60
2023-01-18T04:28:33.999Z,4.68
2023-01-18T04:31:01.207Z,4.82
2023-01-18T04:33:28.381Z,5.05
2023-01-18T04:35:55.560Z,5.03
2023-01-18T04:38:23.504Z,4.18
2023-01-18T04:40:51.237Z,4.25
2023-01-18T04:43:18.419Z,4.55
2023-01-18T04:45:56.704Z,4.78
2023-01-18T04:48:24.784Z,4.85
2023-01-18T04:50:52.384Z,4.72
2023-01-18T04:53:19.458Z,5.53
2023-01-18T04:55:46.692Z,6.20
2023-01-18T04:58:13.815Z,5.47
2023-01-18T05:00:40.993Z,5.90
2023-01-18T05:03:13.080Z,5.75
2023-01-18T05:05:41.242Z,5.32
2023-01-18T05:08:08.392Z,5.70
2023-01-18T05:10:35.507Z,5.40
2023-01-18T05:13:02.681Z,5.18
2023-01-18T05:15:29.786Z,4.88
2023-01-18T05:17:56.848Z,4.95
2023-01-18T05:20:23.936Z,5.00
2023-01-18T05:22:51.030Z,4.35
2023-01-18T05:25:18.075Z,4.25
2023-01-18T05:27:45.158Z,4.05
2023-01-18T05:30:12.418Z,3.85
2023-01-18T05:32:39.733Z,4.40
2023-01-18T05:35:07.333Z,4.00
2023-01-18T05:37:34.377Z,4.53
2023-01-18T05:40:01.530Z,5.05
2023-01-18T05:42:28.672Z,5.70
2023-01-18T05:44:55.743Z,5.65
2023-01-18T05:47:22.786Z,4.88
2023-01-18T05:49:49.889Z,4.75
2023-01-18T05:52:17.201Z,5.57
2023-01-18T05:54:44.335Z,5.45
2023-01-18T05:57:11.363Z,6.32
2023-01-18T05:59:38.438Z,6.00
2023-01-18T06:02:05.628Z,10.77
2023-01-18T06:04:32.815Z,15.65
2023-01-18T06:06:59.951Z,12.73
2023-01-18T06:09:27.060Z,14.68
2023-01-18T06:11:54.120Z,14.32
2023-01-18T06:14:21.163Z,10.15
2023-01-18T06:16:48.317Z,9.50
2023-01-18T06:19:15.399Z,7.95
2023-01-18T06:21:42.446Z,8.35
2023-01-18T06:24:09.530Z,6.72
2023-01-18T06:26:36.662Z,6.78
2023-01-18T06:29:03.770Z,6.25
2023-01-18T06:31:30.846Z,8.45
2023-01-18T06:33:58.028Z,8.88
2023-01-18T06:36:25.198Z,8.55
2023-01-18T06:38:52.304Z,7.82
2023-01-18T06:41:19.428Z,6.88
2023-01-18T06:43:46.469Z,7.07
2023-01-18T06:46:13.610Z,7.60
2023-01-18T06:48:40.753Z,7.55
2023-01-18T06:51:07.844Z,7.85
2023-01-18T06:53:37.625Z,8.23
2023-01-18T06:56:10.544Z,8.23
2023-01-18T06:58:37.960Z,8.13
2023-01-18T07:01:05.291Z,7.80
2023-01-18T07:03:33.181Z,8.00
2023-01-18T07:06:02.673Z,7.00
2023-01-18T07:08:31.754Z,7.80
2023-01-18T07:10:59.810Z,10.00
2023-01-18T07:13:27.186Z,8.10
2023-01-18T07:15:58.411Z,7.72
2023-01-18T07:18:28.207Z,8.35
2023-01-18T07:21:00.628Z,7.72
2023-01-18T07:23:29.095Z,7.55
2023-01-18T07:26:07.393Z,8.25
2023-01-18T07:28:36.405Z,8.52
2023-01-18T07:31:06.342Z,7.90
2023-01-18T07:33:33.502Z,9.45
2023-01-18T07:36:00.792Z,7.55
2023-01-18T07:38:28.632Z,6.82
2023-01-18T07:41:10.270Z,6.18
2023-01-18T07:43:38.160Z,8.13
2023-01-18T07:46:06.951Z,6.93
2023-01-18T07:48:34.861Z,7.20
2023-01-18T07:51:08.316Z,7.22
2023-01-18T07:53:36.884Z,7.57
2023-01-18T07:56:07.257Z,5.82
2023-01-18T07:58:36.481Z,6.53
2023-01-18T08:01:06.479Z,12.07
2023-01-18T08:03:33.900Z,11.27
2023-01-18T08:06:03.264Z,12.93
2023-01-18T08:08:30.734Z,12.43
2023-01-18T08:10:59.969Z,12.68
2023-01-18T08:13:28.051Z,12.45
2023-01-18T08:15:56.171Z,11.30
2023-01-18T08:18:23.866Z,12.52
2023-01-18T08:20:50.916Z,12.55
2023-01-18T08:23:18.808Z,11.93
2023-01-18T08:25:47.611Z,11.15
2023-01-18T08:28:15.326Z,10.95
2023-01-18T08:30:45.680Z,10.98
2023-01-18T08:33:12.972Z,10.05
2023-01-18T08:35:46.031Z,9.45
2023-01-18T08:38:15.816Z,9.70
2023-01-18T08:40:43.782Z,10.25
2023-01-18T08:43:11.981Z,10.43
2023-01-18T08:45:39.278Z,10.77
2023-01-18T08:48:09.784Z,9.32
2023-01-18T08:50:39.321Z,10.23
2023-01-18T08:53:06.415Z,8.95
2023-01-18T08:55:36.940Z,9.27
2023-01-18T08:58:04.478Z,7.93
2023-01-18T09:00:31.617Z,7.50
2023-01-18T09:03:02.406Z,7.05
2023-01-18T09:05:30.351Z,7.88
2023-01-18T09:07:58.055Z,8.48
2023-01-18T09:10:25.249Z,8.10
2023-01-18T09:12:53.703Z,7.28
2023-01-18T09:15:21.652Z,7.22
2023-01-18T09:17:48.724Z,7.22
2023-01-18T09:20:18.666Z,7.25
2023-01-18T09:22:48.112Z,7.63
2023-01-18T09:25:18.415Z,9.35
2023-01-18T09:27:46.794Z,9.10
2023-01-18T09:30:16.186Z,9.80
2023-01-18T09:32:43.375Z,9.65
2023-01-18T09:35:10.568Z,10.55
2023-01-18T09:37:37.827Z,12.18
2023-01-18T09:40:05.399Z,9.57
2023-01-18T09:42:41.132Z,4.38
2023-01-18T09:45:29.928Z,2.30
2023-01-18T09:48:16.424Z,2.53
2023-01-18T09:50:44.093Z,1.90
2023-01-18T09:53:32.683Z,1.08
2023-01-18T09:56:21.779Z,1.73
2023-01-18T09:58:55.819Z,1.58
2023-01-18T10:01:27.972Z,1.20
2023-01-18T10:04:21.517Z,1.40
2023-01-18T10:07:02.326Z,1.75
2023-01-18T10:09:31.598Z,1.60
2023-01-18T10:12:05.152Z,1.77
2023-01-18T10:14:57.317Z,1.48
2023-01-18T10:17:38.469Z,1.02
2023-01-18T10:20:28.648Z,1.17
2023-01-18T10:23:01.895Z,1.80
2023-01-18T10:25:56.965Z,1.60
2023-01-18T10:28:39.762Z,1.00
2023-01-18T10:31:25.109Z,0.80
2023-01-18T10:33:56.860Z,1.30
2023-01-18T10:36:33.678Z,1.30
2023-01-18T10:39:04.536Z,1.23
2023-01-18T10:41:40.836Z,1.33
2023-01-18T10:44:09.515Z,1.50
2023-01-18T10:46:36.629Z,1.40
2023-01-18T10:49:04.607Z,2.05
2023-01-18T10:51:37.241Z,1.65
2023-01-18T10:54:23.889Z,1.30
2023-01-18T10:57:05.175Z,0.88
2023-01-18T10:59:39.972Z,0.80
2023-01-18T11:02:44.215Z,0.90
2023-01-18T11:05:37.892Z,1.13
2023-01-18T11:08:21.255Z,0.80
2023-01-18T11:11:05.670Z,0.80
2023-01-18T11:13:44.083Z,0.90
2023-01-18T11:16:22.748Z,0.80
2023-01-18T11:19:26.227Z,0.70
2023-01-18T11:21:54.185Z,1.25
2023-01-18T11:24:29.036Z,0.57
2023-01-18T11:27:12.173Z,1.05
2023-01-18T11:29:43.837Z,1.38
2023-01-18T11:32:27.098Z,0.90
2023-01-18T11:34:57.524Z,1.20
2023-01-18T11:37:37.514Z,1.25
2023-01-18T11:40:19.734Z,0.60
2023-01-18T11:42:49.029Z,0.65
2023-01-18T11:45:41.018Z,0.60
2023-01-18T11:48:23.296Z,0.60
2023-01-18T11:50:59.388Z,0.57
2023-01-18T11:53:49.057Z,0.60
2023-01-18T11:56:35.372Z,0.50
2023-01-18T11:59:04.706Z,0.43
2023-01-18T12:02:02.730Z,0.40
2023-01-18T12:05:08.388Z,0.30
2023-01-18T12:10:03.224Z,0.80
2023-01-18T12:12:49.260Z,0.40
2023-01-18T12:15:52.204Z,0.38
2023-01-18T12:18:38.491Z,1.30
2023-01-18T12:21:12.116Z,0.80
2023-01-18T12:23:48.144Z,0.93
2023-01-18T12:26:35.412Z,0.88
2023-01-18T12:29:29.811Z,0.80
2023-01-18T12:32:21.250Z,2.50
2023-01-18T12:35:12.635Z,0.52
2023-01-18T12:38:23.371Z,1.65
2023-01-18T12:41:14.222Z,0.70
2023-01-18T12:43:57.584Z,1.20
2023-01-18T12:46:31.865Z,0.70
2023-01-18T12:49:06.408Z,0.88
2023-01-18T12:54:28.111Z,1.15
2023-01-18T12:56:57.517Z,0.73
2023-01-18T12:59:30.681Z,0.80
2023-01-18T13:02:32.346Z,0.60
2023-01-18T13:05:18.065Z,0.70
2023-01-18T13:07:51.831Z,0.70
2023-01-18T13:10:24.650Z,0.70
2023-01-18T13:12:54.312Z,0.70
2023-01-18T13:15:29.354Z,0.65
2023-01-18T13:18:14.073Z,0.60
2023-01-18T13:21:09.985Z,1.67
2023-01-18T13:23:54.214Z,1.40
2023-01-18T13:26:31.520Z,1.00
2023-01-18T13:29:08.309Z,0.98
2023-01-18T13:31:35.805Z,0.60
2023-01-18T13:34:04.002Z,0.40
2023-01-18T13:37:13.362Z,0.70
2023-01-18T13:39:47.995Z,0.75
2023-01-18T13:42:26.548Z,0.57
2023-01-18T13:45:19.725Z,0.95
2023-01-18T13:47:51.683Z,0.60
2023-01-18T13:50:40.253Z,0.82
2023-01-18T13:53:13.275Z,1.00
2023-01-18T13:55:46.087Z,0.90
2023-01-18T13:58:26.799Z,0.68
2023-01-18T14:00:58.641Z,0.82
2023-01-18T14:03:34.843Z,0.70
2023-01-18T14:06:15.168Z,0.75
2023-01-18T14:08:52.193Z,0.50
2023-01-18T14:11:31.854Z,1.00
2023-01-18T14:13:59.281Z,1.35
2023-01-18T14:16:29.823Z,1.58
2023-01-18T14:19:15.956Z,2.05
2023-01-18T14:22:11.341Z,2.40
2023-01-18T14:24:51.731Z,2.15
2023-01-18T14:27:22.642Z,1.40
2023-01-18T14:30:12.283Z,1.00
2023-01-18T14:32:54.123Z,1.27
2023-01-18T14:35:25.725Z,1.42
2023-01-18T14:38:16.941Z,1.23
2023-01-18T14:40:47.263Z,1.27
2023-01-18T14:43:37.898Z,1.20
2023-01-18T14:46:04.978Z,0.90
2023-01-18T14:48:34.939Z,1.00
2023-01-18T14:51:05.304Z,1.20
2023-01-18T14:53:37.143Z,1.17
2023-01-18T14:56:29.050Z,1.75
2023-01-18T14:58:59.175Z,2.70
2023-01-18T15:01:40.425Z,2.22
2023-01-18T15:04:24.261Z,1.30
2023-01-18T15:07:04.463Z,1.50
2023-01-18T15:09:35.133Z,1.50
2023-01-18T15:12:05.973Z,2.20
2023-01-18T15:14:36.843Z,2.35
2023-01-18T15:17:10.386Z,2.10
2023-01-18T15:19:44.386Z,1.83
2023-01-18T15:22:14.799Z,1.70
2023-01-18T15:24:43.930Z,1.40
2023-01-18T15:27:16.983Z,1.75
2023-01-18T15:29:55.670Z,2.03
2023-01-18T15:32:29.625Z,1.75
2023-01-18T15:34:57.373Z,1.67
2023-01-18T15:37:31.182Z,1.45
2023-01-18T15:40:15.160Z,1.92
2023-01-18T15:42:53.065Z,2.10
2023-01-18T15:45:24.248Z,2.22
2023-01-18T15:47:56.543Z,2.40
2023-01-18T15:50:38.894Z,2.40
2023-01-18T15:53:12.258Z,2.70
2023-01-18T15:55:48.419Z,3.17
2023-01-18T15:58:36.018Z,3.30
2023-01-18T16:01:17.761Z,3.85
2023-01-18T16:03:46.191Z,5.25
2023-01-18T16:06:17.265Z,7.00
2023-01-18T16:09:13.950Z,8.30
2023-01-18T16:11:49.987Z,8.88
2023-01-18T16:14:29.030Z,11.95
2023-01-18T16:17:05.013Z,12.27
2023-01-18T16:19:43.538Z,10.13
2023-01-18T16:22:25.905Z,8.32
2023-01-18T16:24:56.040Z,7.05
2023-01-18T16:27:26.434Z,6.93
2023-01-18T16:29:58.112Z,9.60
2023-01-18T16:32:25.523Z,11.32
2023-01-18T16:34:56.126Z,8.38
2023-01-18T16:37:23.778Z,8.07
2023-01-18T16:39:51.444Z,7.63
2023-01-18T16:42:21.761Z,10.75
2023-01-18T16:44:53.690Z,9.07
2023-01-18T16:47:23.676Z,6.35
2023-01-18T16:49:51.441Z,8.65
2023-01-18T16:52:18.836Z,9.25
2023-01-18T16:54:46.426Z,10.00
2023-01-18T16:57:24.053Z,4.60
2023-01-18T16:59:51.923Z,2.97
2023-01-18T17:02:19.531Z,2.28
2023-01-18T17:04:46.848Z,2.88
2023-01-18T17:07:14.858Z,2.30
2023-01-18T17:09:48.690Z,2.10
2023-01-18T17:12:16.594Z,2.15
2023-01-18T17:14:43.944Z,1.70
2023-01-18T17:17:11.496Z,2.28
2023-01-18T17:19:41.727Z,2.33
2023-01-18T17:22:09.028Z,2.47
2023-01-18T17:24:37.040Z,3.10
2023-01-18T17:27:04.399Z,3.28
2023-01-18T17:29:32.034Z,4.95
2023-01-18T17:32:00.095Z,4.65
2023-01-18T17:34:28.744Z,9.70
2023-01-18T17:36:59.021Z,4.25
2023-01-18T17:39:42.738Z,6.43
2023-01-18T17:42:22.875Z,3.17
2023-01-18T17:45:03.217Z,2.90
2023-01-18T17:47:32.277Z,2.45
2023-01-18T17:50:01.842Z,2.42
2023-01-18T17:52:29.151Z,3.10
2023-01-18T17:54:56.768Z,2.75
2023-01-18T17:57:24.143Z,2.40
2023-01-18T17:59:56.238Z,1.83
2023-01-18T18:02:26.416Z,2.22
2023-01-18T18:04:56.278Z,2.25
2023-01-18T18:07:24.284Z,2.15
2023-01-18T18:09:57.205Z,2.17
2023-01-18T18:12:25.128Z,2.53
2023-01-18T18:14:54.664Z,2.70
2023-01-18T18:17:24.238Z,2.28
2023-01-18T18:19:52.471Z,1.98
2023-01-18T18:22:21.037Z,2.53
2023-01-18T18:24:50.064Z,2.72
2023-01-18T18:27:21.879Z,3.13
2023-01-18T18:29:50.523Z,2.50
2023-01-18T18:32:18.424Z,3.50
2023-01-18T18:34:46.279Z,4.72
2023-01-18T18:37:15.754Z,4.00
2023-01-18T18:39:44.083Z,3.55
2023-01-18T18:42:11.824Z,3.92
2023-01-18T18:44:39.655Z,5.47
2023-01-18T18:47:10.752Z,5.20
2023-01-18T18:49:38.571Z,4.90
2023-01-18T18:52:06.503Z,5.50
2023-01-18T18:54:34.414Z,5.88
2023-01-18T18:57:03.842Z,5.40
2023-01-18T18:59:31.806Z,6.53
2023-01-18T19:01:59.631Z,5.80
2023-01-18T19:04:27.692Z,6.38
2023-01-18T19:06:55.062Z,6.15
2023-01-18T19:09:22.938Z,5.47
2023-01-18T19:11:55.482Z,5.88
2023-01-18T19:14:26.262Z,6.78
2023-01-18T19:16:55.479Z,6.75
2023-01-18T19:19:25.392Z,5.93
2023-01-18T19:21:56.481Z,6.13
2023-01-18T19:24:25.063Z,6.45
2023-01-18T19:26:53.219Z,6.47
2023-01-18T19:29:22.241Z,7.80
2023-01-18T19:31:50.228Z,8.43
2023-01-18T19:34:20.138Z,5.93
2023-01-18T19:36:49.699Z,6.00
2023-01-18T19:39:22.392Z,6.00
2023-01-18T19:41:51.162Z,6.28
2023-01-18T19:44:18.969Z,6.13
2023-01-18T19:46:47.939Z,6.28
2023-01-18T19:49:15.841Z,6.50
2023-01-18T19:51:45.391Z,6.00
2023-01-18T19:54:13.775Z,6.28
2023-01-18T19:56:41.847Z,6.70
2023-01-18T19:59:12.021Z,6.85
2023-01-18T20:01:40.177Z,6.13
2023-01-18T20:04:09.034Z,6.45
2023-01-18T20:06:40.501Z,6.50
2023-01-18T20:09:18.638Z,5.97
2023-01-18T20:11:48.432Z,6.40
2023-01-18T20:14:16.597Z,6.63
2023-01-18T20:16:45.985Z,6.05
2023-01-18T20:19:20.981Z,6.20
2023-01-18T20:21:48.813Z,6.50
2023-01-18T20:24:17.441Z,6.22
2023-01-18T20:26:45.619Z,6.15
2023-01-18T20:29:13.544Z,6.80
2023-01-18T20:31:49.590Z,7.35
2023-01-18T20:34:18.239Z,7.28
2023-01-18T20:36:47.508Z,7.72
2023-01-18T20:39:15.201Z,7.15
2023-01-18T20:41:43.297Z,6.28
2023-01-18T20:44:11.302Z,7.35
2023-01-18T20:46:41.928Z,7.00
2023-01-18T20:49:09.669Z,7.10
2023-01-18T20:51:37.262Z,6.72
2023-01-18T20:54:05.707Z,6.47
2023-01-18T20:56:34.732Z,6.97
2023-01-18T20:59:02.254Z,6.63
2023-01-18T21:01:33.217Z,6.88
2023-01-18T21:04:03.200Z,7.00
2023-01-18T21:06:31.748Z,6.57
2023-01-18T21:09:01.051Z,6.35
2023-01-18T21:11:28.880Z,6.65
2023-01-18T21:13:59.793Z,6.13
2023-01-18T21:16:27.931Z,6.40
2023-01-18T21:18:56.489Z,6.15
2023-01-18T21:21:24.233Z,7.38
2023-01-18T21:23:51.431Z,6.50
2023-01-18T21:26:21.012Z,6.80
2023-01-18T21:28:48.408Z,7.15
2023-01-18T21:31:15.651Z,6.18
2023-01-18T21:33:42.886Z,6.20
2023-01-18T21:36:14.545Z,6.35
2023-01-18T21:38:42.139Z,6.63
2023-01-18T21:41:28.738Z,5.90
2023-01-18T21:44:14.463Z,6.03
2023-01-18T21:46:48.889Z,6.45
2023-01-18T21:49:51.978Z,6.70
2023-01-18T21:52:39.818Z,5.90
2023-01-18T21:55:07.173Z,7.13
2023-01-18T21:57:35.325Z,6.55
2023-01-18T22:00:03.212Z,6.68
2023-01-18T22:02:30.441Z,6.95
2023-01-18T22:05:00.352Z,6.38
2023-01-18T22:07:34.507Z,5.88
2023-01-18T22:10:05.643Z,6.60
2023-01-18T22:12:35.746Z,7.18
2023-01-18T22:15:04.596Z,6.70
2023-01-18T22:17:31.836Z,7.07
2023-01-18T22:19:59.665Z,6.65
2023-01-18T22:22:26.780Z,6.47
2023-01-18T22:24:54.287Z,6.40
2023-01-18T22:27:21.492Z,6.20
2023-01-18T22:29:48.917Z,6.53
2023-01-18T22:32:16.608Z,7.22
2023-01-18T22:34:43.731Z,7.53
2023-01-18T22:37:11.031Z,7.00
2023-01-18T22:39:38.191Z,7.20
2023-01-18T22:42:05.361Z,6.53
2023-01-18T22:44:33.062Z,5.90
2023-01-18T22:47:00.193Z,6.03
2023-01-18T22:49:27.327Z,6.30
2023-01-18T22:51:54.469Z,5.93
2023-01-18T22:54:23.269Z,5.68
2023-01-18T22:56:50.445Z,5.38
2023-01-18T22:59:17.611Z,6.18
2023-01-18T23:01:44.892Z,5.85
2023-01-18T23:04:12.102Z,6.10
2023-01-18T23:06:50.834Z,6.63
2023-01-18T23:09:18.182Z,6.15
2023-01-18T23:11:45.722Z,6.35
2023-01-18T23:14:31.309Z,6.47
2023-01-18T23:17:17.124Z,5.65
2023-01-18T23:19:44.203Z,5.97
2023-01-18T23:22:11.383Z,5.70
2023-01-18T23:24:39.758Z,6.63
2023-01-18T23:27:10.273Z,5.90
2023-01-18T23:29:39.289Z,6.57
2023-01-18T23:32:07.549Z,5.53
2023-01-18T23:34:34.889Z,5.70
2023-01-18T23:37:02.056Z,5.95
2023-01-18T23:39:47.567Z,6.25
2023-01-18T23:42:33.353Z,6.53
2023-01-18T23:45:19.205Z,5.63
2023-01-18T23:48:04.806Z,6.32
2023-01-18T23:50:50.565Z,6.18
2023-01-18T23:53:36.157Z,6.07
2023-01-18T23:56:03.397Z,6.38
2023-01-18T23:58:30.491Z,6.55
